sensor_id;sensor_type;location;lat;lon;timestamp;temperature;humidity
50548;DHT22;38013;48.810;8.818;2022-12-07T00:01:15;5.50;80.10
50548;DHT22;38013;48.810;8.818;2022-12-07T00:03:47;5.50;80.20
50548;DHT22;38013;48.810;8.818;2022-12-07T00:06:15;5.50;80.20
50548;DHT22;38013;48.810;8.818;2022-12-07T00:08:42;5.50;80.10
50548;DHT22;38013;48.810;8.818;2022-12-07T00:11:14;5.50;80.10
50548;DHT22;38013;48.810;8.818;2022-12-07T00:13:44;5.50;80.10
50548;DHT22;38013;48.810;8.818;2022-12-07T00:16:21;5.50;80.00
50548;DHT22;38013;48.810;8.818;2022-12-07T00:18:48;5.60;80.00
50548;DHT22;38013;48.810;8.818;2022-12-07T00:21:25;5.60;79.80
50548;DHT22;38013;48.810;8.818;2022-12-07T00:23:56;5.60;79.70
50548;DHT22;38013;48.810;8.818;2022-12-07T00:26:23;5.60;79.70
50548;DHT22;38013;48.810;8.818;2022-12-07T00:28:53;5.60;79.70
50548;DHT22;38013;48.810;8.818;2022-12-07T00:31:22;5.60;79.80
50548;DHT22;38013;48.810;8.818;2022-12-07T00:33:50;5.60;79.70
50548;DHT22;38013;48.810;8.818;2022-12-07T00:36:19;5.60;79.60
50548;DHT22;38013;48.810;8.818;2022-12-07T00:38:45;5.60;79.50
50548;DHT22;38013;48.810;8.818;2022-12-07T00:41:22;5.60;79.50
50548;DHT22;38013;48.810;8.818;2022-12-07T00:43:50;5.60;79.50
50548;DHT22;38013;48.810;8.818;2022-12-07T00:46:17;5.60;79.50
50548;DHT22;38013;48.810;8.818;2022-12-07T00:48:44;5.60;79.50
50548;DHT22;38013;48.810;8.818;2022-12-07T00:51:11;5.60;79.50
50548;DHT22;38013;48.810;8.818;2022-12-07T00:53:39;5.60;79.50
50548;DHT22;38013;48.810;8.818;2022-12-07T00:56:19;5.60;79.50
50548;DHT22;38013;48.810;8.818;2022-12-07T00:59:11;5.60;79.40
50548;DHT22;38013;48.810;8.818;2022-12-07T01:01:36;5.60;79.40
50548;DHT22;38013;48.810;8.818;2022-12-07T01:04:02;5.60;79.30
50548;DHT22;38013;48.810;8.818;2022-12-07T01:06:29;5.50;79.30
50548;DHT22;38013;48.810;8.818;2022-12-07T01:08:55;5.50;79.40
50548;DHT22;38013;48.810;8.818;2022-12-07T01:11:23;5.50;80.10
50548;DHT22;38013;48.810;8.818;2022-12-07T01:13:52;5.40;79.50
50548;DHT22;38013;48.810;8.818;2022-12-07T01:16:20;5.40;79.70
50548;DHT22;38013;48.810;8.818;2022-12-07T01:18:48;5.30;79.70
50548;DHT22;38013;48.810;8.818;2022-12-07T01:21:17;5.30;79.80
50548;DHT22;38013;48.810;8.818;2022-12-07T01:23:46;5.30;79.90
50548;DHT22;38013;48.810;8.818;2022-12-07T01:26:16;5.30;79.90
50548;DHT22;38013;48.810;8.818;2022-12-07T01:28:47;5.30;80.10
50548;DHT22;38013;48.810;8.818;2022-12-07T01:31:18;5.30;80.00
50548;DHT22;38013;48.810;8.818;2022-12-07T01:33:48;5.30;80.10
50548;DHT22;38013;48.810;8.818;2022-12-07T01:36:28;5.30;80.00
50548;DHT22;38013;48.810;8.818;2022-12-07T01:38:57;5.30;80.10
50548;DHT22;38013;48.810;8.818;2022-12-07T01:41:26;5.30;80.00
50548;DHT22;38013;48.810;8.818;2022-12-07T01:44:15;5.30;80.00
50548;DHT22;38013;48.810;8.818;2022-12-07T01:47:03;5.20;80.20
50548;DHT22;38013;48.810;8.818;2022-12-07T01:49:42;5.20;80.00
50548;DHT22;38013;48.810;8.818;2022-12-07T01:52:29;5.20;80.20
50548;DHT22;38013;48.810;8.818;2022-12-07T01:55:03;5.20;80.20
50548;DHT22;38013;48.810;8.818;2022-12-07T01:57:34;5.20;80.20
50548;DHT22;38013;48.810;8.818;2022-12-07T02:00:05;5.10;80.10
50548;DHT22;38013;48.810;8.818;2022-12-07T02:03:03;5.20;80.20
50548;DHT22;38013;48.810;8.818;2022-12-07T02:05:32;5.10;80.50
50548;DHT22;38013;48.810;8.818;2022-12-07T02:08:00;5.10;80.30
50548;DHT22;38013;48.810;8.818;2022-12-07T02:10:29;5.10;80.30
50548;DHT22;38013;48.810;8.818;2022-12-07T02:15:32;5.10;80.40
50548;DHT22;38013;48.810;8.818;2022-12-07T02:18:13;5.00;80.40
50548;DHT22;38013;48.810;8.818;2022-12-07T02:30:12;5.00;80.20
50548;DHT22;38013;48.810;8.818;2022-12-07T02:33:31;5.00;80.70
50548;DHT22;38013;48.810;8.818;2022-12-07T02:36:02;5.00;80.20
50548;DHT22;38013;48.810;8.818;2022-12-07T02:38:39;5.00;80.10
50548;DHT22;38013;48.810;8.818;2022-12-07T02:41:18;5.00;80.10
50548;DHT22;38013;48.810;8.818;2022-12-07T02:43:47;5.00;80.20
50548;DHT22;38013;48.810;8.818;2022-12-07T02:46:21;5.00;80.30
50548;DHT22;38013;48.810;8.818;2022-12-07T02:48:49;5.00;80.00
50548;DHT22;38013;48.810;8.818;2022-12-07T02:51:18;5.00;79.90
50548;DHT22;38013;48.810;8.818;2022-12-07T02:53:44;5.00;79.90
50548;DHT22;38013;48.810;8.818;2022-12-07T03:05:23;5.10;79.90
50548;DHT22;38013;48.810;8.818;2022-12-07T03:08:08;5.10;79.80
50548;DHT22;38013;48.810;8.818;2022-12-07T03:11:04;5.10;79.70
50548;DHT22;38013;48.810;8.818;2022-12-07T03:16:45;5.10;79.50
50548;DHT22;38013;48.810;8.818;2022-12-07T03:19:27;5.20;79.50
50548;DHT22;38013;48.810;8.818;2022-12-07T03:21:54;5.10;79.40
50548;DHT22;38013;48.810;8.818;2022-12-07T03:24:27;5.20;79.40
50548;DHT22;38013;48.810;8.818;2022-12-07T03:27:04;5.20;79.40
50548;DHT22;38013;48.810;8.818;2022-12-07T03:29:40;5.20;79.20
50548;DHT22;38013;48.810;8.818;2022-12-07T03:32:15;5.20;79.20
50548;DHT22;38013;48.810;8.818;2022-12-07T03:34:55;5.20;79.20
50548;DHT22;38013;48.810;8.818;2022-12-07T03:37:36;5.20;79.10
50548;DHT22;38013;48.810;8.818;2022-12-07T03:42:40;5.20;78.90
50548;DHT22;38013;48.810;8.818;2022-12-07T03:45:07;5.20;78.90
50548;DHT22;38013;48.810;8.818;2022-12-07T03:50:28;5.20;78.60
50548;DHT22;38013;48.810;8.818;2022-12-07T03:53:00;5.20;78.50
50548;DHT22;38013;48.810;8.818;2022-12-07T03:55:36;5.20;78.40
50548;DHT22;38013;48.810;8.818;2022-12-07T03:58:11;5.20;78.20
50548;DHT22;38013;48.810;8.818;2022-12-07T04:00:38;5.20;78.20
50548;DHT22;38013;48.810;8.818;2022-12-07T04:03:04;5.10;78.20
50548;DHT22;38013;48.810;8.818;2022-12-07T04:05:30;5.10;78.30
50548;DHT22;38013;48.810;8.818;2022-12-07T04:07:55;5.20;78.30
50548;DHT22;38013;48.810;8.818;2022-12-07T04:10:21;5.10;78.20
50548;DHT22;38013;48.810;8.818;2022-12-07T04:12:47;5.10;78.10
50548;DHT22;38013;48.810;8.818;2022-12-07T04:15:13;5.20;78.10
50548;DHT22;38013;48.810;8.818;2022-12-07T04:17:38;5.10;77.80
50548;DHT22;38013;48.810;8.818;2022-12-07T04:20:05;5.20;77.80
50548;DHT22;38013;48.810;8.818;2022-12-07T04:22:31;5.10;77.70
50548;DHT22;38013;48.810;8.818;2022-12-07T04:24:57;5.10;77.70
50548;DHT22;38013;48.810;8.818;2022-12-07T04:27:23;5.10;77.70
50548;DHT22;38013;48.810;8.818;2022-12-07T04:29:48;5.10;77.60
50548;DHT22;38013;48.810;8.818;2022-12-07T04:32:14;5.10;77.40
50548;DHT22;38013;48.810;8.818;2022-12-07T04:34:40;5.10;77.20
50548;DHT22;38013;48.810;8.818;2022-12-07T04:37:06;5.00;76.80
50548;DHT22;38013;48.810;8.818;2022-12-07T04:39:32;5.00;76.80
50548;DHT22;38013;48.810;8.818;2022-12-07T04:41:59;5.00;76.60
50548;DHT22;38013;48.810;8.818;2022-12-07T04:44:27;4.90;76.50
50548;DHT22;38013;48.810;8.818;2022-12-07T04:46:54;4.90;76.50
50548;DHT22;38013;48.810;8.818;2022-12-07T04:49:20;4.90;76.50
50548;DHT22;38013;48.810;8.818;2022-12-07T04:51:46;4.80;76.40
50548;DHT22;38013;48.810;8.818;2022-12-07T04:54:14;4.80;76.40
50548;DHT22;38013;48.810;8.818;2022-12-07T04:56:40;4.80;76.30
50548;DHT22;38013;48.810;8.818;2022-12-07T04:59:06;4.80;76.10
50548;DHT22;38013;48.810;8.818;2022-12-07T05:01:32;4.80;75.90
50548;DHT22;38013;48.810;8.818;2022-12-07T05:03:58;4.70;75.50
50548;DHT22;38013;48.810;8.818;2022-12-07T05:06:25;4.70;75.30
50548;DHT22;38013;48.810;8.818;2022-12-07T05:08:51;4.60;75.20
50548;DHT22;38013;48.810;8.818;2022-12-07T05:11:17;4.50;75.20
50548;DHT22;38013;48.810;8.818;2022-12-07T05:14:03;4.40;75.30
50548;DHT22;38013;48.810;8.818;2022-12-07T05:16:30;4.40;75.40
50548;DHT22;38013;48.810;8.818;2022-12-07T05:18:55;4.30;75.50
50548;DHT22;38013;48.810;8.818;2022-12-07T05:21:21;4.20;75.50
50548;DHT22;38013;48.810;8.818;2022-12-07T05:23:47;4.10;75.70
50548;DHT22;38013;48.810;8.818;2022-12-07T05:26:13;4.00;75.90
50548;DHT22;38013;48.810;8.818;2022-12-07T05:28:39;4.00;76.10
50548;DHT22;38013;48.810;8.818;2022-12-07T05:31:05;4.00;76.30
50548;DHT22;38013;48.810;8.818;2022-12-07T05:33:30;3.90;76.40
50548;DHT22;38013;48.810;8.818;2022-12-07T05:35:56;3.90;76.40
50548;DHT22;38013;48.810;8.818;2022-12-07T05:38:22;3.90;76.50
50548;DHT22;38013;48.810;8.818;2022-12-07T05:40:48;3.90;77.30
50548;DHT22;38013;48.810;8.818;2022-12-07T05:43:13;3.90;76.70
50548;DHT22;38013;48.810;8.818;2022-12-07T05:45:39;3.80;76.60
50548;DHT22;38013;48.810;8.818;2022-12-07T05:48:05;3.90;76.70
50548;DHT22;38013;48.810;8.818;2022-12-07T05:50:31;3.90;76.70
50548;DHT22;38013;48.810;8.818;2022-12-07T05:52:59;3.80;76.70
50548;DHT22;38013;48.810;8.818;2022-12-07T05:55:25;3.90;76.90
50548;DHT22;38013;48.810;8.818;2022-12-07T05:57:51;3.90;76.90
50548;DHT22;38013;48.810;8.818;2022-12-07T06:00:35;3.80;76.90
50548;DHT22;38013;48.810;8.818;2022-12-07T06:03:01;3.90;76.90
50548;DHT22;38013;48.810;8.818;2022-12-07T06:05:27;3.90;76.90
50548;DHT22;38013;48.810;8.818;2022-12-07T06:07:53;3.90;76.90
50548;DHT22;38013;48.810;8.818;2022-12-07T06:10:18;3.90;76.90
50548;DHT22;38013;48.810;8.818;2022-12-07T06:12:44;4.00;77.00
50548;DHT22;38013;48.810;8.818;2022-12-07T06:15:11;4.00;77.00
50548;DHT22;38013;48.810;8.818;2022-12-07T06:17:38;3.90;76.90
50548;DHT22;38013;48.810;8.818;2022-12-07T06:20:05;4.00;77.00
50548;DHT22;38013;48.810;8.818;2022-12-07T06:22:32;4.00;77.00
50548;DHT22;38013;48.810;8.818;2022-12-07T06:24:57;4.00;77.00
50548;DHT22;38013;48.810;8.818;2022-12-07T06:27:23;4.00;77.00
50548;DHT22;38013;48.810;8.818;2022-12-07T06:29:49;4.00;77.00
50548;DHT22;38013;48.810;8.818;2022-12-07T06:32:15;4.10;77.10
50548;DHT22;38013;48.810;8.818;2022-12-07T06:34:40;4.10;77.80
50548;DHT22;38013;48.810;8.818;2022-12-07T06:37:06;4.10;77.20
50548;DHT22;38013;48.810;8.818;2022-12-07T06:39:32;4.10;77.20
50548;DHT22;38013;48.810;8.818;2022-12-07T06:41:58;4.20;77.10
50548;DHT22;38013;48.810;8.818;2022-12-07T06:44:24;4.20;76.90
50548;DHT22;38013;48.810;8.818;2022-12-07T06:46:51;4.20;76.80
50548;DHT22;38013;48.810;8.818;2022-12-07T06:49:17;4.20;76.60
50548;DHT22;38013;48.810;8.818;2022-12-07T06:51:43;4.20;76.50
50548;DHT22;38013;48.810;8.818;2022-12-07T06:54:13;4.20;76.40
50548;DHT22;38013;48.810;8.818;2022-12-07T06:56:39;4.30;76.30
50548;DHT22;38013;48.810;8.818;2022-12-07T06:59:06;4.30;76.30
50548;DHT22;38013;48.810;8.818;2022-12-07T07:01:33;4.20;76.00
50548;DHT22;38013;48.810;8.818;2022-12-07T07:03:59;4.20;75.90
50548;DHT22;38013;48.810;8.818;2022-12-07T07:06:27;4.30;75.90
50548;DHT22;38013;48.810;8.818;2022-12-07T07:08:52;4.30;75.70
50548;DHT22;38013;48.810;8.818;2022-12-07T07:11:18;4.30;75.70
50548;DHT22;38013;48.810;8.818;2022-12-07T07:13:44;4.30;75.60
50548;DHT22;38013;48.810;8.818;2022-12-07T07:16:10;4.30;75.60
50548;DHT22;38013;48.810;8.818;2022-12-07T07:18:37;4.30;75.50
50548;DHT22;38013;48.810;8.818;2022-12-07T07:21:03;4.30;75.30
50548;DHT22;38013;48.810;8.818;2022-12-07T07:23:29;4.30;75.20
50548;DHT22;38013;48.810;8.818;2022-12-07T07:25:54;4.30;75.10
50548;DHT22;38013;48.810;8.818;2022-12-07T07:28:20;4.30;75.10
50548;DHT22;38013;48.810;8.818;2022-12-07T07:30:46;4.30;75.00
50548;DHT22;38013;48.810;8.818;2022-12-07T07:33:12;4.30;75.00
50548;DHT22;38013;48.810;8.818;2022-12-07T07:35:38;4.30;74.90
50548;DHT22;38013;48.810;8.818;2022-12-07T07:38:05;4.30;74.90
50548;DHT22;38013;48.810;8.818;2022-12-07T07:40:31;4.40;74.90
50548;DHT22;38013;48.810;8.818;2022-12-07T07:42:57;4.40;74.90
50548;DHT22;38013;48.810;8.818;2022-12-07T07:45:25;4.40;74.80
50548;DHT22;38013;48.810;8.818;2022-12-07T07:47:51;4.40;74.80
50548;DHT22;38013;48.810;8.818;2022-12-07T07:50:18;4.40;74.60
50548;DHT22;38013;48.810;8.818;2022-12-07T07:52:44;4.50;74.50
50548;DHT22;38013;48.810;8.818;2022-12-07T07:55:11;4.50;74.50
50548;DHT22;38013;48.810;8.818;2022-12-07T07:57:38;4.50;74.60
50548;DHT22;38013;48.810;8.818;2022-12-07T08:00:07;4.60;74.60
50548;DHT22;38013;48.810;8.818;2022-12-07T08:02:38;4.60;74.60
50548;DHT22;38013;48.810;8.818;2022-12-07T08:05:04;4.60;74.60
50548;DHT22;38013;48.810;8.818;2022-12-07T08:07:30;4.70;75.10
50548;DHT22;38013;48.810;8.818;2022-12-07T08:09:56;4.70;74.30
50548;DHT22;38013;48.810;8.818;2022-12-07T08:12:22;4.70;74.00
50548;DHT22;38013;48.810;8.818;2022-12-07T08:14:47;4.70;74.20
50548;DHT22;38013;48.810;8.818;2022-12-07T08:17:13;4.80;74.20
50548;DHT22;38013;48.810;8.818;2022-12-07T08:19:39;4.70;74.20
50548;DHT22;38013;48.810;8.818;2022-12-07T08:22:05;4.80;74.40
50548;DHT22;38013;48.810;8.818;2022-12-07T08:24:33;4.80;74.40
50548;DHT22;38013;48.810;8.818;2022-12-07T08:26:59;4.90;74.50
50548;DHT22;38013;48.810;8.818;2022-12-07T08:29:25;4.90;74.50
50548;DHT22;38013;48.810;8.818;2022-12-07T08:31:51;4.90;74.40
50548;DHT22;38013;48.810;8.818;2022-12-07T08:34:17;5.00;74.50
50548;DHT22;38013;48.810;8.818;2022-12-07T08:36:43;5.00;74.30
50548;DHT22;38013;48.810;8.818;2022-12-07T08:39:08;5.00;74.40
50548;DHT22;38013;48.810;8.818;2022-12-07T08:41:34;5.10;74.50
50548;DHT22;38013;48.810;8.818;2022-12-07T08:44:00;5.10;74.40
50548;DHT22;38013;48.810;8.818;2022-12-07T08:46:36;5.10;74.20
50548;DHT22;38013;48.810;8.818;2022-12-07T08:49:09;5.20;74.00
50548;DHT22;38013;48.810;8.818;2022-12-07T08:51:40;5.20;74.20
50548;DHT22;38013;48.810;8.818;2022-12-07T08:54:09;5.30;74.20
50548;DHT22;38013;48.810;8.818;2022-12-07T08:56:36;5.30;74.20
50548;DHT22;38013;48.810;8.818;2022-12-07T08:59:04;5.30;74.30
50548;DHT22;38013;48.810;8.818;2022-12-07T09:01:30;5.40;74.50
50548;DHT22;38013;48.810;8.818;2022-12-07T09:03:56;5.40;74.50
50548;DHT22;38013;48.810;8.818;2022-12-07T09:06:22;5.50;74.60
50548;DHT22;38013;48.810;8.818;2022-12-07T09:08:51;5.50;74.60
50548;DHT22;38013;48.810;8.818;2022-12-07T09:11:19;5.50;74.60
50548;DHT22;38013;48.810;8.818;2022-12-07T09:13:45;5.60;74.80
50548;DHT22;38013;48.810;8.818;2022-12-07T09:16:11;5.70;74.80
50548;DHT22;38013;48.810;8.818;2022-12-07T09:18:36;5.70;74.70
50548;DHT22;38013;48.810;8.818;2022-12-07T09:21:03;5.80;74.80
50548;DHT22;38013;48.810;8.818;2022-12-07T09:23:29;5.90;74.80
50548;DHT22;38013;48.810;8.818;2022-12-07T09:25:59;5.90;74.70
50548;DHT22;38013;48.810;8.818;2022-12-07T09:28:26;6.00;74.70
50548;DHT22;38013;48.810;8.818;2022-12-07T09:30:52;6.10;74.60
50548;DHT22;38013;48.810;8.818;2022-12-07T09:33:17;6.10;74.40
50548;DHT22;38013;48.810;8.818;2022-12-07T09:35:47;6.20;74.30
50548;DHT22;38013;48.810;8.818;2022-12-07T09:38:15;6.20;74.00
50548;DHT22;38013;48.810;8.818;2022-12-07T09:40:41;6.20;74.00
50548;DHT22;38013;48.810;8.818;2022-12-07T09:43:20;6.20;74.00
50548;DHT22;38013;48.810;8.818;2022-12-07T09:45:49;6.20;73.80
50548;DHT22;38013;48.810;8.818;2022-12-07T09:48:30;6.30;74.20
50548;DHT22;38013;48.810;8.818;2022-12-07T09:50:59;6.30;73.80
50548;DHT22;38013;48.810;8.818;2022-12-07T09:53:28;6.30;73.80
50548;DHT22;38013;48.810;8.818;2022-12-07T09:55:56;6.30;73.70
50548;DHT22;38013;48.810;8.818;2022-12-07T09:58:24;6.40;73.90
50548;DHT22;38013;48.810;8.818;2022-12-07T10:03:33;6.50;72.80
50548;DHT22;38013;48.810;8.818;2022-12-07T10:06:00;6.50;73.40
50548;DHT22;38013;48.810;8.818;2022-12-07T10:08:27;6.50;73.30
50548;DHT22;38013;48.810;8.818;2022-12-07T10:10:54;6.50;73.20
50548;DHT22;38013;48.810;8.818;2022-12-07T10:13:42;6.50;73.20
50548;DHT22;38013;48.810;8.818;2022-12-07T10:16:40;6.50;72.40
50548;DHT22;38013;48.810;8.818;2022-12-07T10:19:26;6.50;72.70
50548;DHT22;38013;48.810;8.818;2022-12-07T10:22:11;6.50;72.80
50548;DHT22;38013;48.810;8.818;2022-12-07T10:24:43;6.50;72.80
50548;DHT22;38013;48.810;8.818;2022-12-07T10:27:31;6.60;73.00
50548;DHT22;38013;48.810;8.818;2022-12-07T10:29:58;6.60;72.70
50548;DHT22;38013;48.810;8.818;2022-12-07T10:32:34;6.60;73.00
50548;DHT22;38013;48.810;8.818;2022-12-07T10:35:25;6.60;73.00
50548;DHT22;38013;48.810;8.818;2022-12-07T10:37:54;6.60;72.30
50548;DHT22;38013;48.810;8.818;2022-12-07T10:43:18;6.60;72.80
50548;DHT22;38013;48.810;8.818;2022-12-07T10:51:32;6.50;73.60
50548;DHT22;38013;48.810;8.818;2022-12-07T10:54:17;6.60;73.50
50548;DHT22;38013;48.810;8.818;2022-12-07T10:59:52;6.50;73.90
50548;DHT22;38013;48.810;8.818;2022-12-07T11:10:59;6.50;74.30
50548;DHT22;38013;48.810;8.818;2022-12-07T11:13:44;6.50;74.10
50548;DHT22;38013;48.810;8.818;2022-12-07T11:28:02;6.40;73.60
50548;DHT22;38013;48.810;8.818;2022-12-07T11:33:56;6.30;73.80
50548;DHT22;38013;48.810;8.818;2022-12-07T11:36:44;6.20;74.20
50548;DHT22;38013;48.810;8.818;2022-12-07T11:39:26;6.20;74.30
50548;DHT22;38013;48.810;8.818;2022-12-07T11:42:08;6.20;74.60
50548;DHT22;38013;48.810;8.818;2022-12-07T11:45:03;6.10;74.60
50548;DHT22;38013;48.810;8.818;2022-12-07T11:48:02;6.10;74.70
50548;DHT22;38013;48.810;8.818;2022-12-07T11:50:48;6.10;74.70
50548;DHT22;38013;48.810;8.818;2022-12-07T11:53:37;6.10;74.50
50548;DHT22;38013;48.810;8.818;2022-12-07T11:56:14;6.10;74.60
50548;DHT22;38013;48.810;8.818;2022-12-07T11:58:52;6.10;74.60
50548;DHT22;38013;48.810;8.818;2022-12-07T12:01:42;6.10;74.50
50548;DHT22;38013;48.810;8.818;2022-12-07T12:04:27;6.10;74.60
50548;DHT22;38013;48.810;8.818;2022-12-07T12:06:57;6.10;74.60
50548;DHT22;38013;48.810;8.818;2022-12-07T12:09:39;6.10;74.50
50548;DHT22;38013;48.810;8.818;2022-12-07T12:12:29;6.00;74.20
50548;DHT22;38013;48.810;8.818;2022-12-07T12:18:11;6.00;74.40
50548;DHT22;38013;48.810;8.818;2022-12-07T12:21:04;5.90;74.50
50548;DHT22;38013;48.810;8.818;2022-12-07T12:23:40;5.90;74.50
50548;DHT22;38013;48.810;8.818;2022-12-07T12:26:16;5.90;74.60
50548;DHT22;38013;48.810;8.818;2022-12-07T12:29:05;5.90;74.60
50548;DHT22;38013;48.810;8.818;2022-12-07T12:31:39;5.80;74.70
50548;DHT22;38013;48.810;8.818;2022-12-07T12:34:32;5.80;75.10
50548;DHT22;38013;48.810;8.818;2022-12-07T12:47:59;5.90;74.80
50548;DHT22;38013;48.810;8.818;2022-12-07T12:50:36;6.00;74.60
50548;DHT22;38013;48.810;8.818;2022-12-07T12:53:11;6.00;74.70
50548;DHT22;38013;48.810;8.818;2022-12-07T12:59:26;6.00;74.90
50548;DHT22;38013;48.810;8.818;2022-12-07T13:02:34;6.00;74.70
50548;DHT22;38013;48.810;8.818;2022-12-07T13:10:34;6.00;74.40
50548;DHT22;38013;48.810;8.818;2022-12-07T13:13:04;6.00;74.60
50548;DHT22;38013;48.810;8.818;2022-12-07T13:15:52;6.00;74.90
50548;DHT22;38013;48.810;8.818;2022-12-07T13:18:38;6.00;74.90
50548;DHT22;38013;48.810;8.818;2022-12-07T13:23:51;6.10;74.90
50548;DHT22;38013;48.810;8.818;2022-12-07T13:29:16;6.10;74.70
50548;DHT22;38013;48.810;8.818;2022-12-07T13:31:47;6.20;74.90
50548;DHT22;38013;48.810;8.818;2022-12-07T13:39:48;6.30;74.60
50548;DHT22;38013;48.810;8.818;2022-12-07T13:42:35;6.20;74.40
50548;DHT22;38013;48.810;8.818;2022-12-07T13:45:21;6.30;74.20
50548;DHT22;38013;48.810;8.818;2022-12-07T13:47:54;6.20;74.20
50548;DHT22;38013;48.810;8.818;2022-12-07T13:50:31;6.30;74.80
50548;DHT22;38013;48.810;8.818;2022-12-07T13:52:58;6.20;74.80
50548;DHT22;38013;48.810;8.818;2022-12-07T13:55:26;6.30;75.00
50548;DHT22;38013;48.810;8.818;2022-12-07T13:57:54;6.30;74.80
50548;DHT22;38013;48.810;8.818;2022-12-07T14:00:27;6.30;75.10
50548;DHT22;38013;48.810;8.818;2022-12-07T14:02:58;6.30;75.10
50548;DHT22;38013;48.810;8.818;2022-12-07T14:06:07;6.40;75.10
50548;DHT22;38013;48.810;8.818;2022-12-07T14:08:46;6.50;74.70
50548;DHT22;38013;48.810;8.818;2022-12-07T14:11:17;6.50;74.70
50548;DHT22;38013;48.810;8.818;2022-12-07T14:13:56;6.50;74.30
50548;DHT22;38013;48.810;8.818;2022-12-07T14:16:27;6.50;74.60
50548;DHT22;38013;48.810;8.818;2022-12-07T14:18:56;6.50;73.80
50548;DHT22;38013;48.810;8.818;2022-12-07T14:21:25;6.50;73.90
50548;DHT22;38013;48.810;8.818;2022-12-07T14:24:10;6.40;73.70
50548;DHT22;38013;48.810;8.818;2022-12-07T14:26:37;6.40;73.60
50548;DHT22;38013;48.810;8.818;2022-12-07T14:31:57;6.40;73.70
50548;DHT22;38013;48.810;8.818;2022-12-07T14:34:25;6.30;74.10
50548;DHT22;38013;48.810;8.818;2022-12-07T14:36:51;6.30;73.90
50548;DHT22;38013;48.810;8.818;2022-12-07T14:39:17;6.30;74.10
50548;DHT22;38013;48.810;8.818;2022-12-07T14:41:42;6.30;74.10
50548;DHT22;38013;48.810;8.818;2022-12-07T14:44:20;6.30;74.10
50548;DHT22;38013;48.810;8.818;2022-12-07T14:46:47;6.20;74.00
50548;DHT22;38013;48.810;8.818;2022-12-07T14:49:13;6.10;73.90
50548;DHT22;38013;48.810;8.818;2022-12-07T14:51:41;6.10;74.10
50548;DHT22;38013;48.810;8.818;2022-12-07T14:54:15;6.00;74.30
50548;DHT22;38013;48.810;8.818;2022-12-07T14:56:44;5.90;74.40
50548;DHT22;38013;48.810;8.818;2022-12-07T14:59:11;5.90;74.50
50548;DHT22;38013;48.810;8.818;2022-12-07T15:01:38;5.80;74.50
50548;DHT22;38013;48.810;8.818;2022-12-07T15:04:04;5.70;74.50
50548;DHT22;38013;48.810;8.818;2022-12-07T15:06:30;5.70;74.60
50548;DHT22;38013;48.810;8.818;2022-12-07T15:08:56;5.60;74.70
50548;DHT22;38013;48.810;8.818;2022-12-07T15:11:21;5.60;74.80
50548;DHT22;38013;48.810;8.818;2022-12-07T15:13:47;5.50;74.80
50548;DHT22;38013;48.810;8.818;2022-12-07T15:16:31;5.50;74.90
50548;DHT22;38013;48.810;8.818;2022-12-07T15:18:57;5.40;74.90
50548;DHT22;38013;48.810;8.818;2022-12-07T15:21:23;5.40;75.00
50548;DHT22;38013;48.810;8.818;2022-12-07T15:23:49;5.30;75.00
50548;DHT22;38013;48.810;8.818;2022-12-07T15:26:15;5.30;75.10
50548;DHT22;38013;48.810;8.818;2022-12-07T15:28:41;5.20;75.20
50548;DHT22;38013;48.810;8.818;2022-12-07T15:31:12;5.20;75.20
50548;DHT22;38013;48.810;8.818;2022-12-07T15:33:42;5.20;75.40
50548;DHT22;38013;48.810;8.818;2022-12-07T15:36:18;5.20;75.50
50548;DHT22;38013;48.810;8.818;2022-12-07T15:38:48;5.20;75.50
50548;DHT22;38013;48.810;8.818;2022-12-07T15:41:14;5.10;75.60
50548;DHT22;38013;48.810;8.818;2022-12-07T15:43:40;5.10;75.70
50548;DHT22;38013;48.810;8.818;2022-12-07T15:46:35;5.10;75.70
50548;DHT22;38013;48.810;8.818;2022-12-07T15:49:05;5.10;75.70
50548;DHT22;38013;48.810;8.818;2022-12-07T15:51:33;5.10;75.70
50548;DHT22;38013;48.810;8.818;2022-12-07T15:53:58;5.10;75.70
50548;DHT22;38013;48.810;8.818;2022-12-07T15:56:24;5.10;75.70
50548;DHT22;38013;48.810;8.818;2022-12-07T15:58:50;5.20;75.70
50548;DHT22;38013;48.810;8.818;2022-12-07T16:01:18;5.20;75.60
50548;DHT22;38013;48.810;8.818;2022-12-07T16:03:45;5.20;75.60
50548;DHT22;38013;48.810;8.818;2022-12-07T16:06:11;5.20;75.70
50548;DHT22;38013;48.810;8.818;2022-12-07T16:08:42;5.20;75.70
50548;DHT22;38013;48.810;8.818;2022-12-07T16:11:09;5.20;75.70
50548;DHT22;38013;48.810;8.818;2022-12-07T16:13:35;5.20;75.70
50548;DHT22;38013;48.810;8.818;2022-12-07T16:16:05;5.20;75.70
50548;DHT22;38013;48.810;8.818;2022-12-07T16:18:33;5.20;75.90
50548;DHT22;38013;48.810;8.818;2022-12-07T16:20:59;5.20;75.80
50548;DHT22;38013;48.810;8.818;2022-12-07T16:23:25;5.30;75.90
50548;DHT22;38013;48.810;8.818;2022-12-07T16:25:50;5.20;75.90
50548;DHT22;38013;48.810;8.818;2022-12-07T16:28:16;5.30;75.90
50548;DHT22;38013;48.810;8.818;2022-12-07T16:30:42;5.20;75.90
50548;DHT22;38013;48.810;8.818;2022-12-07T16:33:07;5.20;76.00
50548;DHT22;38013;48.810;8.818;2022-12-07T16:35:33;5.20;76.00
50548;DHT22;38013;48.810;8.818;2022-12-07T16:37:59;5.20;76.10
50548;DHT22;38013;48.810;8.818;2022-12-07T16:40:25;5.10;76.30
50548;DHT22;38013;48.810;8.818;2022-12-07T16:42:50;5.10;76.40
50548;DHT22;38013;48.810;8.818;2022-12-07T16:45:17;5.10;76.50
50548;DHT22;38013;48.810;8.818;2022-12-07T16:47:43;5.10;76.50
50548;DHT22;38013;48.810;8.818;2022-12-07T16:50:09;5.10;76.50
50548;DHT22;38013;48.810;8.818;2022-12-07T16:52:34;5.10;76.60
50548;DHT22;38013;48.810;8.818;2022-12-07T16:55:00;5.10;76.70
50548;DHT22;38013;48.810;8.818;2022-12-07T16:57:26;5.10;76.80
50548;DHT22;38013;48.810;8.818;2022-12-07T16:59:52;5.10;76.90
50548;DHT22;38013;48.810;8.818;2022-12-07T17:02:18;5.10;76.90
50548;DHT22;38013;48.810;8.818;2022-12-07T17:04:44;5.10;77.00
50548;DHT22;38013;48.810;8.818;2022-12-07T17:07:10;5.10;77.00
50548;DHT22;38013;48.810;8.818;2022-12-07T17:09:36;5.10;77.10
50548;DHT22;38013;48.810;8.818;2022-12-07T17:12:02;5.10;77.00
50548;DHT22;38013;48.810;8.818;2022-12-07T17:14:28;5.10;77.00
50548;DHT22;38013;48.810;8.818;2022-12-07T17:17:12;5.10;77.00
50548;DHT22;38013;48.810;8.818;2022-12-07T17:19:38;5.10;77.00
50548;DHT22;38013;48.810;8.818;2022-12-07T17:22:04;5.10;77.10
50548;DHT22;38013;48.810;8.818;2022-12-07T17:24:30;5.10;77.10
50548;DHT22;38013;48.810;8.818;2022-12-07T17:26:56;5.10;77.30
50548;DHT22;38013;48.810;8.818;2022-12-07T17:29:22;5.10;77.30
50548;DHT22;38013;48.810;8.818;2022-12-07T17:31:48;5.10;77.30
50548;DHT22;38013;48.810;8.818;2022-12-07T17:34:15;5.00;77.30
50548;DHT22;38013;48.810;8.818;2022-12-07T17:36:41;5.00;77.30
50548;DHT22;38013;48.810;8.818;2022-12-07T17:39:13;5.00;77.20
50548;DHT22;38013;48.810;8.818;2022-12-07T17:41:40;5.00;77.30
50548;DHT22;38013;48.810;8.818;2022-12-07T17:44:24;5.00;77.20
50548;DHT22;38013;48.810;8.818;2022-12-07T17:46:52;5.00;77.30
50548;DHT22;38013;48.810;8.818;2022-12-07T17:49:22;5.10;77.30
50548;DHT22;38013;48.810;8.818;2022-12-07T17:51:49;5.00;77.30